createdAt,value
2018-05-06T00:02:27.135Z,14.70
2018-05-06T00:04:54.759Z,14.60
2018-05-06T00:07:22.322Z,14.50
2018-05-06T00:09:49.819Z,14.40
2018-05-06T00:12:18.116Z,14.20
2018-05-06T00:14:46.461Z,14.10
2018-05-06T00:17:14.019Z,14.00
2018-05-06T00:19:41.550Z,14.00
2018-05-06T00:22:09.098Z,13.90
2018-05-06T00:24:36.715Z,13.90
2018-05-06T00:27:05.027Z,13.80
2018-05-06T00:29:32.579Z,13.80
2018-05-06T00:32:00.157Z,13.80
2018-05-06T00:34:27.796Z,13.80
2018-05-06T00:36:55.464Z,13.70
2018-05-06T00:39:22.945Z,13.70
2018-05-06T00:41:50.508Z,13.60
2018-05-06T00:44:18.013Z,13.60
2018-05-06T00:46:45.523Z,13.60
2018-05-06T00:49:13.049Z,13.60
2018-05-06T00:51:40.602Z,13.60
2018-05-06T00:54:20.084Z,13.40
2018-05-06T00:56:47.636Z,13.50
2018-05-06T00:59:15.177Z,13.40
2018-05-06T01:01:42.725Z,13.40
2018-05-06T01:04:10.268Z,13.60
2018-05-06T01:06:37.773Z,13.60
2018-05-06T01:09:05.310Z,13.60
2018-05-06T01:11:33.064Z,13.60
2018-05-06T01:14:00.637Z,13.60
2018-05-06T01:16:28.245Z,13.60
2018-05-06T01:18:56.550Z,13.40
2018-05-06T01:21:24.110Z,13.40
2018-05-06T01:23:51.599Z,13.30
2018-05-06T01:26:19.229Z,13.20
2018-05-06T01:28:46.730Z,13.10
2018-05-06T01:31:14.323Z,13.00
2018-05-06T01:33:42.572Z,13.00
2018-05-06T01:36:10.903Z,13.00
2018-05-06T01:38:38.478Z,12.90
2018-05-06T01:41:06.016Z,12.90
2018-05-06T01:43:33.556Z,12.90
2018-05-06T01:46:01.214Z,12.80
2018-05-06T01:48:28.762Z,12.70
2018-05-06T01:50:57.031Z,12.60
2018-05-06T01:53:25.334Z,12.60
2018-05-06T01:55:52.900Z,12.60
2018-05-06T01:58:20.434Z,12.60
2018-05-06T02:00:47.970Z,12.50
2018-05-06T02:03:15.510Z,12.50
2018-05-06T02:05:43.016Z,12.50
2018-05-06T02:08:10.542Z,12.40
2018-05-06T02:10:38.089Z,12.50
2018-05-06T02:13:05.781Z,12.40
2018-05-06T02:15:34.059Z,12.30
2018-05-06T02:18:02.421Z,12.20
2018-05-06T02:20:30.725Z,12.10
2018-05-06T02:22:58.261Z,12.00
2018-05-06T02:25:26.790Z,11.90
2018-05-06T02:27:54.302Z,11.90
2018-05-06T02:30:22.616Z,11.80
2018-05-06T02:32:50.270Z,11.80
2018-05-06T02:35:17.765Z,11.70
2018-05-06T02:37:45.360Z,11.70
2018-05-06T02:40:12.862Z,11.70
2018-05-06T02:42:40.476Z,11.60
2018-05-06T02:45:08.743Z,11.60
2018-05-06T02:47:37.017Z,11.50
2018-05-06T02:50:04.579Z,11.50
2018-05-06T02:52:32.146Z,11.50
2018-05-06T02:55:00.435Z,11.40
2018-05-06T02:57:27.995Z,11.40
2018-05-06T02:59:55.519Z,11.40
2018-05-06T03:02:23.094Z,11.30
2018-05-06T03:04:51.092Z,11.40
2018-05-06T03:07:18.619Z,11.40
2018-05-06T03:09:46.162Z,11.70
2018-05-06T03:12:13.763Z,11.70
2018-05-06T03:14:41.408Z,11.60
2018-05-06T03:17:08.968Z,11.40
2018-05-06T03:19:37.225Z,11.60
2018-05-06T03:22:05.618Z,12.00
2018-05-06T03:24:33.931Z,12.10
2018-05-06T03:27:01.573Z,12.10
2018-05-06T03:29:29.053Z,12.00
2018-05-06T03:31:56.582Z,11.70
2018-05-06T03:34:24.107Z,11.20
2018-05-06T03:36:52.373Z,10.90
2018-05-06T03:39:19.891Z,10.90
2018-05-06T03:41:47.388Z,10.80
2018-05-06T03:44:14.980Z,10.70
2018-05-06T03:46:42.519Z,10.90
2018-05-06T03:49:10.810Z,10.80
2018-05-06T03:51:38.329Z,10.80
2018-05-06T03:54:05.838Z,10.70
2018-05-06T03:56:54.852Z,10.70
2018-05-06T03:59:34.192Z,10.70
2018-05-06T04:05:10.656Z,10.50
2018-05-06T04:07:38.253Z,10.60
2018-05-06T04:10:06.664Z,10.60
2018-05-06T04:12:34.369Z,10.60
2018-05-06T04:15:01.914Z,10.60
2018-05-06T04:17:29.446Z,10.60
2018-05-06T04:19:56.977Z,10.60
2018-05-06T04:22:24.521Z,10.60
2018-05-06T04:24:52.101Z,10.70
2018-05-06T04:27:19.610Z,10.70
2018-05-06T04:29:47.231Z,10.60
2018-05-06T04:32:14.735Z,10.60
2018-05-06T04:34:42.291Z,10.70
2018-05-06T04:37:09.825Z,10.70
2018-05-06T04:39:37.328Z,10.80
2018-05-06T04:42:05.705Z,10.90
2018-05-06T04:44:34.036Z,11.00
2018-05-06T04:47:01.673Z,11.00
2018-05-06T04:49:29.558Z,11.10
2018-05-06T04:51:57.072Z,11.20
2018-05-06T04:54:24.694Z,11.30
2018-05-06T04:56:52.556Z,11.30
2018-05-06T04:59:20.080Z,11.90
2018-05-06T05:01:47.612Z,13.00
2018-05-06T05:04:15.934Z,14.80
2018-05-06T05:06:43.675Z,14.80
2018-05-06T05:09:11.307Z,15.60
2018-05-06T05:11:39.568Z,16.40
2018-05-06T05:14:07.867Z,16.80
2018-05-06T05:16:36.168Z,17.50
2018-05-06T05:19:03.677Z,17.50
2018-05-06T05:21:31.230Z,18.40
2018-05-06T05:23:59.537Z,18.40
2018-05-06T05:26:27.127Z,18.30
2018-05-06T05:28:54.673Z,16.90
2018-05-06T05:31:22.538Z,17.00
2018-05-06T05:33:50.044Z,16.30
2018-05-06T05:36:17.575Z,16.70
2018-05-06T05:38:45.137Z,16.90
2018-05-06T05:41:12.672Z,16.70
2018-05-06T05:43:40.192Z,17.40
2018-05-06T05:46:08.554Z,18.60
2018-05-06T05:48:36.178Z,18.50
2018-05-06T05:51:03.689Z,17.60
2018-05-06T05:53:32.180Z,16.90
2018-05-06T05:56:00.461Z,17.10
2018-05-06T05:58:27.966Z,17.10
2018-05-06T06:00:55.565Z,16.60
2018-05-06T06:03:23.825Z,17.00
2018-05-06T06:05:51.337Z,17.00
2018-05-06T06:08:18.847Z,16.40
2018-05-06T06:10:47.152Z,17.00
2018-05-06T06:13:14.666Z,16.90
2018-05-06T06:15:42.219Z,17.40
2018-05-06T06:18:09.743Z,17.20
2018-05-06T06:20:37.293Z,16.60
2018-05-06T06:23:04.846Z,17.70
2018-05-06T06:25:32.965Z,17.60
2018-05-06T06:28:00.487Z,17.10
2018-05-06T06:30:28.037Z,16.60
2018-05-06T06:32:55.635Z,16.20
2018-05-06T06:35:23.109Z,15.80
2018-05-06T06:37:50.717Z,16.30
2018-05-06T06:40:18.286Z,16.40
2018-05-06T06:42:45.901Z,16.60
2018-05-06T06:45:14.280Z,17.10
2018-05-06T06:47:42.574Z,18.60
2018-05-06T06:50:10.140Z,18.60
2018-05-06T06:52:37.647Z,19.70
2018-05-06T06:55:05.217Z,18.50
2018-05-06T06:57:33.497Z,17.10
2018-05-06T07:00:01.798Z,16.70
2018-05-06T07:02:29.326Z,16.60
2018-05-06T07:04:57.645Z,19.70
2018-05-06T07:07:25.212Z,19.70
2018-05-06T07:09:52.732Z,20.00
2018-05-06T07:12:21.265Z,20.70
2018-05-06T07:14:48.797Z,20.70
2018-05-06T07:17:16.349Z,21.00
2018-05-06T07:19:43.867Z,22.00
2018-05-06T07:22:11.432Z,21.60
2018-05-06T07:24:40.270Z,22.90
2018-05-06T07:27:07.805Z,22.90
2018-05-06T07:29:35.371Z,24.00
2018-05-06T07:32:02.885Z,23.50
2018-05-06T07:34:30.438Z,22.60
2018-05-06T07:36:58.020Z,22.20
2018-05-06T07:39:25.598Z,23.30
2018-05-06T07:41:53.873Z,22.10
2018-05-06T07:44:21.451Z,22.00
2018-05-06T07:46:48.966Z,23.60
2018-05-06T07:49:17.289Z,22.20
2018-05-06T07:51:44.834Z,22.20
2018-05-06T07:54:12.341Z,22.60
2018-05-06T07:56:39.866Z,22.20
2018-05-06T07:59:07.514Z,22.40
2018-05-06T08:01:35.019Z,20.90
2018-05-06T08:04:02.561Z,20.40
2018-05-06T08:06:30.116Z,20.90
2018-05-06T08:08:57.611Z,23.20
2018-05-06T08:11:26.005Z,23.90
2018-05-06T08:13:54.292Z,22.00
2018-05-06T08:16:21.886Z,22.00
2018-05-06T08:18:49.385Z,21.00
2018-05-06T08:21:17.751Z,23.30
2018-05-06T08:23:46.068Z,25.00
2018-05-06T08:26:13.676Z,24.90
2018-05-06T08:28:41.204Z,24.20
2018-05-06T08:31:08.995Z,24.50
2018-05-06T08:33:36.557Z,24.60
2018-05-06T08:36:04.099Z,23.70
2018-05-06T08:38:31.696Z,21.60
2018-05-06T08:40:59.292Z,21.30
2018-05-06T08:43:26.825Z,23.30
2018-05-06T08:45:54.427Z,24.10
2018-05-06T08:48:23.499Z,23.70
2018-05-06T08:50:51.057Z,23.70
2018-05-06T08:53:18.602Z,25.00
2018-05-06T08:55:46.404Z,25.10
2018-05-06T08:58:14.065Z,24.10
2018-05-06T09:00:41.693Z,24.70
2018-05-06T09:03:09.205Z,23.30
2018-05-06T09:05:36.933Z,25.00
2018-05-06T09:08:04.465Z,25.30
2018-05-06T09:10:31.977Z,23.30
2018-05-06T09:12:59.501Z,23.70
2018-05-06T09:15:27.153Z,23.00
2018-05-06T09:17:54.669Z,22.90
2018-05-06T09:20:22.955Z,26.70
2018-05-06T09:22:51.300Z,25.30
2018-05-06T09:25:18.898Z,25.30
2018-05-06T09:27:47.161Z,27.20
2018-05-06T09:30:15.544Z,28.00
2018-05-06T09:32:43.928Z,27.70
2018-05-06T09:35:12.213Z,27.20
2018-05-06T09:37:39.788Z,27.20
2018-05-06T09:40:08.066Z,26.00
2018-05-06T09:42:35.659Z,26.00
2018-05-06T09:45:03.914Z,25.90
2018-05-06T09:47:31.571Z,25.80
2018-05-06T09:49:59.120Z,25.30
2018-05-06T09:52:26.637Z,26.30
2018-05-06T09:54:54.883Z,25.60
2018-05-06T09:57:22.419Z,25.50
2018-05-06T09:59:49.986Z,25.90
2018-05-06T10:02:17.542Z,25.80
2018-05-06T10:04:46.559Z,25.90
2018-05-06T10:07:14.125Z,26.70
2018-05-06T10:09:41.729Z,27.20
2018-05-06T10:12:09.256Z,25.90
2018-05-06T10:14:37.552Z,25.40
2018-05-06T10:17:05.123Z,25.40
2018-05-06T10:19:33.429Z,26.50
2018-05-06T10:22:00.922Z,26.90
2018-05-06T10:24:29.639Z,26.40
2018-05-06T10:26:57.144Z,26.40
2018-05-06T10:29:24.681Z,26.70
2018-05-06T10:31:52.217Z,26.90
2018-05-06T10:34:19.740Z,27.10
2018-05-06T10:36:48.049Z,26.70
2018-05-06T10:39:15.562Z,26.60
2018-05-06T10:41:44.010Z,25.60
2018-05-06T10:44:11.685Z,25.60
2018-05-06T10:46:39.093Z,26.40
2018-05-06T10:49:06.739Z,26.20
2018-05-06T10:51:34.319Z,26.00
2018-05-06T10:54:01.813Z,26.70
2018-05-06T10:56:29.546Z,27.30
2018-05-06T10:58:57.110Z,26.20
2018-05-06T11:01:24.618Z,26.80
2018-05-06T11:03:52.386Z,25.90
2018-05-06T11:06:20.689Z,25.20
2018-05-06T11:08:48.229Z,25.10
2018-05-06T11:11:15.763Z,25.10
2018-05-06T11:13:44.097Z,26.70
2018-05-06T11:16:11.653Z,26.70
2018-05-06T11:18:39.458Z,27.40
2018-05-06T11:21:06.985Z,27.30
2018-05-06T11:23:34.589Z,26.10
2018-05-06T11:26:02.972Z,26.00
2018-05-06T11:28:31.305Z,25.90
2018-05-06T11:30:58.825Z,25.90
2018-05-06T11:33:26.525Z,27.00
2018-05-06T11:35:53.987Z,25.50
2018-05-06T11:38:21.506Z,25.00
2018-05-06T11:40:49.092Z,25.20
2018-05-06T11:43:16.629Z,24.70
2018-05-06T11:45:44.117Z,25.60
2018-05-06T11:48:12.544Z,26.40
2018-05-06T11:50:39.920Z,26.30
2018-05-06T11:53:07.517Z,26.30
2018-05-06T11:55:35.033Z,27.20
2018-05-06T11:58:02.606Z,26.90
2018-05-06T12:00:30.231Z,25.80
2018-05-06T12:02:58.549Z,25.20
2018-05-06T12:05:26.068Z,25.20
2018-05-06T12:07:54.335Z,24.50
2018-05-06T12:10:22.685Z,24.80
2018-05-06T12:12:50.202Z,24.80
2018-05-06T12:15:17.714Z,25.10
2018-05-06T12:17:45.270Z,25.40
2018-05-06T12:20:13.591Z,25.20
2018-05-06T12:22:41.081Z,25.20
2018-05-06T12:25:10.241Z,25.30
2018-05-06T12:27:37.902Z,25.30
2018-05-06T12:30:05.507Z,25.30
2018-05-06T12:32:34.555Z,25.40
2018-05-06T12:35:02.089Z,25.40
2018-05-06T12:37:29.617Z,25.50
2018-05-06T12:39:57.127Z,25.50
2018-05-06T12:42:24.909Z,25.40
2018-05-06T12:44:52.443Z,25.10
2018-05-06T12:47:19.981Z,25.10
2018-05-06T12:49:48.333Z,25.30
2018-05-06T12:52:16.648Z,25.30
2018-05-06T12:54:44.161Z,25.30
2018-05-06T12:57:11.800Z,25.50
2018-05-06T12:59:39.312Z,25.50
2018-05-06T13:02:07.606Z,25.50
2018-05-06T13:04:35.183Z,25.50
2018-05-06T13:07:02.717Z,25.70
2018-05-06T13:09:30.228Z,25.50
2018-05-06T13:11:58.591Z,25.50
2018-05-06T13:14:26.118Z,25.50
2018-05-06T13:16:53.968Z,25.50
2018-05-06T13:19:21.512Z,25.70
2018-05-06T13:21:49.826Z,25.70
2018-05-06T13:24:17.362Z,25.70
2018-05-06T13:26:44.897Z,25.90
2018-05-06T13:29:13.162Z,25.70
2018-05-06T13:31:42.221Z,25.80
2018-05-06T13:34:09.769Z,25.80
2018-05-06T13:36:37.292Z,25.80
2018-05-06T13:39:05.583Z,25.90
2018-05-06T13:41:33.134Z,25.90
2018-05-06T13:44:00.683Z,26.00
2018-05-06T13:46:28.223Z,26.00
2018-05-06T13:48:55.764Z,26.10
2018-05-06T13:51:23.306Z,26.20
2018-05-06T13:53:50.846Z,26.10
2018-05-06T13:56:18.465Z,26.20
2018-05-06T13:58:46.921Z,26.20
2018-05-06T14:01:14.416Z,26.20
2018-05-06T14:03:42.624Z,26.20
2018-05-06T14:06:10.252Z,26.20
2018-05-06T14:08:37.821Z,26.30
2018-05-06T14:11:06.257Z,26.30
2018-05-06T14:13:33.714Z,26.30
2018-05-06T14:16:02.162Z,26.40
2018-05-06T14:18:29.591Z,26.30
2018-05-06T14:20:57.151Z,26.40
2018-05-06T14:23:24.658Z,26.50
2018-05-06T14:25:52.252Z,26.30
2018-05-06T14:28:19.826Z,26.50
2018-05-06T14:30:47.395Z,26.50
2018-05-06T14:33:14.961Z,26.40
2018-05-06T14:35:42.518Z,26.30
2018-05-06T14:38:10.040Z,26.40
2018-05-06T14:40:38.329Z,26.50
2018-05-06T14:43:06.225Z,26.50
2018-05-06T14:45:34.437Z,26.30
2018-05-06T14:48:13.895Z,26.50
2018-05-06T14:50:41.449Z,26.60
2018-05-06T14:53:09.774Z,26.60
2018-05-06T14:55:37.547Z,26.60
2018-05-06T14:58:05.065Z,26.60
2018-05-06T15:00:32.610Z,26.60
2018-05-06T15:03:00.140Z,26.60
2018-05-06T15:05:27.670Z,26.70
2018-05-06T15:07:55.193Z,26.70
2018-05-06T15:10:23.588Z,26.50
2018-05-06T15:12:51.071Z,26.40
2018-05-06T15:15:18.676Z,26.50
2018-05-06T15:17:47.062Z,26.40
2018-05-06T15:20:14.763Z,26.30
2018-05-06T15:22:42.331Z,26.30
2018-05-06T15:25:09.993Z,26.20
2018-05-06T15:27:37.537Z,26.40
2018-05-06T15:30:05.102Z,26.40
2018-05-06T15:32:32.592Z,26.40
2018-05-06T15:35:00.945Z,26.40
2018-05-06T15:37:28.522Z,26.40
2018-05-06T15:39:56.042Z,26.40
2018-05-06T15:42:23.645Z,26.20
2018-05-06T15:44:51.225Z,26.30
2018-05-06T15:47:18.725Z,26.30
2018-05-06T15:49:46.273Z,26.30
2018-05-06T15:52:13.821Z,26.40
2018-05-06T15:54:41.371Z,26.30
2018-05-06T15:57:09.014Z,26.20
2018-05-06T15:59:36.701Z,26.20
2018-05-06T16:05:02.143Z,26.20
2018-05-06T16:07:29.679Z,26.20
2018-05-06T16:09:57.240Z,26.20
2018-05-06T16:12:24.806Z,26.30
2018-05-06T16:14:52.358Z,26.20
2018-05-06T16:17:19.983Z,26.20
2018-05-06T16:19:48.602Z,26.10
2018-05-06T16:22:16.347Z,26.10
2018-05-06T16:24:43.866Z,26.10
2018-05-06T16:27:11.478Z,26.00
2018-05-06T16:29:39.155Z,26.10
2018-05-06T16:32:06.599Z,26.10
2018-05-06T16:34:34.084Z,26.20
2018-05-06T16:37:01.724Z,26.10
2018-05-06T16:39:29.304Z,26.10
2018-05-06T16:41:57.007Z,26.00
2018-05-06T16:44:25.300Z,26.10
2018-05-06T16:46:52.874Z,26.00
2018-05-06T16:49:20.396Z,25.90
2018-05-06T16:51:47.977Z,25.90
2018-05-06T16:54:15.525Z,25.80
2018-05-06T16:56:43.041Z,25.70
2018-05-06T16:59:10.721Z,25.70
2018-05-06T17:01:38.280Z,25.70
2018-05-06T17:04:05.887Z,25.70
2018-05-06T17:06:33.401Z,25.60
2018-05-06T17:09:01.762Z,25.50
2018-05-06T17:11:29.358Z,25.40
2018-05-06T17:13:56.916Z,25.40
2018-05-06T17:16:25.217Z,25.30
2018-05-06T17:18:52.801Z,25.30
2018-05-06T17:21:20.366Z,25.20
2018-05-06T17:23:47.916Z,25.10
2018-05-06T17:26:15.443Z,25.10
2018-05-06T17:28:43.791Z,25.10
2018-05-06T17:31:12.105Z,25.10
2018-05-06T17:33:39.603Z,25.10
2018-05-06T17:36:07.241Z,25.00
2018-05-06T17:38:34.786Z,24.90
2018-05-06T17:41:02.349Z,24.80
2018-05-06T17:43:29.860Z,24.80
2018-05-06T17:45:58.229Z,24.60
2018-05-06T17:48:26.560Z,24.60
2018-05-06T17:50:54.210Z,24.60
2018-05-06T17:53:21.729Z,24.60
2018-05-06T17:55:50.035Z,24.50
2018-05-06T17:58:18.424Z,24.40
2018-05-06T18:00:45.940Z,24.40
2018-05-06T18:03:14.248Z,24.40
2018-05-06T18:05:42.002Z,24.40
2018-05-06T18:08:09.557Z,24.40
2018-05-06T18:10:37.114Z,24.30
2018-05-06T18:13:04.682Z,24.20
2018-05-06T18:15:32.297Z,24.10
2018-05-06T18:17:59.837Z,24.00
2018-05-06T18:20:27.398Z,23.90
2018-05-06T18:22:54.920Z,23.80
2018-05-06T18:25:22.836Z,23.80
2018-05-06T18:27:50.388Z,23.70
2018-05-06T18:30:18.577Z,23.60
2018-05-06T18:32:46.814Z,23.50
2018-05-06T18:35:15.001Z,23.40
2018-05-06T18:37:42.988Z,23.30
2018-05-06T18:40:10.932Z,23.20
2018-05-06T18:42:39.609Z,23.10
2018-05-06T18:45:07.508Z,23.00
2018-05-06T18:47:35.151Z,23.00
2018-05-06T18:50:02.693Z,23.00
2018-05-06T18:52:30.335Z,22.90
2018-05-06T18:54:58.004Z,22.80
2018-05-06T18:57:25.867Z,22.70
2018-05-06T18:59:54.169Z,22.60
2018-05-06T19:02:21.724Z,22.50
2018-05-06T19:04:49.250Z,22.50
2018-05-06T19:07:16.758Z,22.40
2018-05-06T19:09:44.365Z,22.30
2018-05-06T19:12:11.870Z,22.20
2018-05-06T19:14:39.395Z,22.10
2018-05-06T19:17:06.974Z,22.10
2018-05-06T19:19:34.498Z,22.10
2018-05-06T19:22:02.103Z,22.10
2018-05-06T19:24:30.453Z,22.10
2018-05-06T19:26:58.009Z,22.10
2018-05-06T19:29:25.554Z,22.00
2018-05-06T19:31:53.052Z,22.00
2018-05-06T19:34:20.675Z,21.90
2018-05-06T19:36:48.231Z,21.80
2018-05-06T19:39:15.865Z,21.70
2018-05-06T19:41:44.242Z,21.50
2018-05-06T19:44:12.542Z,21.50
2018-05-06T19:46:40.118Z,21.40
2018-05-06T19:49:07.674Z,21.50
2018-05-06T19:51:35.219Z,21.40
2018-05-06T19:54:02.776Z,21.40
2018-05-06T19:56:30.296Z,21.40
2018-05-06T19:58:58.586Z,21.30
2018-05-06T20:01:26.123Z,21.30
2018-05-06T20:03:54.381Z,21.20
2018-05-06T20:06:21.920Z,21.20
2018-05-06T20:08:49.448Z,21.10
2018-05-06T20:11:17.014Z,21.10
2018-05-06T20:13:44.511Z,21.00
2018-05-06T20:16:12.124Z,20.90
2018-05-06T20:18:40.407Z,20.70
2018-05-06T20:21:08.290Z,20.70
2018-05-06T20:23:35.786Z,20.70
2018-05-06T20:26:03.386Z,20.60
2018-05-06T20:28:30.913Z,20.60
2018-05-06T20:30:59.222Z,20.50
2018-05-06T20:33:26.744Z,20.50
2018-05-06T20:35:55.042Z,20.40
2018-05-06T20:38:22.669Z,20.40
2018-05-06T20:40:50.165Z,20.30
2018-05-06T20:43:17.712Z,20.30
2018-05-06T20:45:45.592Z,20.30
2018-05-06T20:48:13.153Z,20.10
2018-05-06T20:50:40.697Z,20.10
2018-05-06T20:53:08.293Z,20.00
2018-05-06T20:55:35.804Z,19.90
2018-05-06T20:58:04.094Z,19.80
2018-05-06T21:00:31.614Z,19.80
2018-05-06T21:02:59.151Z,19.70
2018-05-06T21:05:26.713Z,19.70
2018-05-06T21:07:54.215Z,19.70
2018-05-06T21:10:22.594Z,19.40
2018-05-06T21:12:50.081Z,19.40
2018-05-06T21:15:17.629Z,19.50
2018-05-06T21:17:45.430Z,19.50
2018-05-06T21:20:12.951Z,19.60
2018-05-06T21:22:40.480Z,19.60
2018-05-06T21:25:08.866Z,19.50
2018-05-06T21:27:37.274Z,19.40
2018-05-06T21:30:05.553Z,19.30
2018-05-06T21:32:33.101Z,19.30
2018-05-06T21:35:00.702Z,19.30
2018-05-06T21:37:29.376Z,19.10
2018-05-06T21:39:57.974Z,19.00
2018-05-06T21:42:25.507Z,18.90
2018-05-06T21:44:53.208Z,18.80
2018-05-06T21:47:21.393Z,18.70
2018-05-06T21:49:49.697Z,18.70
2018-05-06T21:52:17.220Z,18.70
2018-05-06T21:54:45.518Z,18.50
2018-05-06T21:57:13.125Z,18.50
2018-05-06T21:59:40.661Z,18.50
2018-05-06T22:02:08.220Z,18.50
2018-05-06T22:04:35.742Z,18.50
2018-05-06T22:07:03.318Z,18.50
2018-05-06T22:09:30.987Z,18.50
2018-05-06T22:11:58.507Z,18.50
2018-05-06T22:14:26.864Z,18.20
2018-05-06T22:16:54.435Z,18.20
2018-05-06T22:19:21.956Z,18.30
2018-05-06T22:21:49.549Z,18.20
2018-05-06T22:24:17.137Z,18.20
2018-05-06T22:26:44.644Z,17.90
2018-05-06T22:29:12.198Z,17.90
2018-05-06T22:31:39.735Z,18.00
2018-05-06T22:34:07.341Z,18.00
2018-05-06T22:36:34.868Z,18.00
2018-05-06T22:39:02.385Z,18.00
2018-05-06T22:41:29.945Z,17.90
2018-05-06T22:43:57.519Z,17.90
2018-05-06T22:46:25.177Z,18.00
2018-05-06T22:48:52.694Z,17.90
2018-05-06T22:51:20.256Z,18.00
2018-05-06T22:53:48.643Z,17.90
2018-05-06T22:56:17.170Z,17.80
2018-05-06T22:58:44.747Z,17.80
2018-05-06T23:01:12.266Z,17.80
2018-05-06T23:03:39.966Z,17.80
2018-05-06T23:06:07.486Z,17.80
2018-05-06T23:08:35.029Z,17.70
2018-05-06T23:11:03.323Z,17.70
2018-05-06T23:13:30.918Z,17.60
2018-05-06T23:15:58.444Z,17.60
2018-05-06T23:18:26.281Z,17.60
2018-05-06T23:20:54.624Z,17.50
2018-05-06T23:23:22.088Z,17.40
2018-05-06T23:25:49.606Z,17.40
2018-05-06T23:28:17.129Z,17.40
2018-05-06T23:30:44.685Z,17.40
2018-05-06T23:33:13.115Z,17.20
2018-05-06T23:35:41.001Z,17.10
2018-05-06T23:38:08.639Z,17.10
2018-05-06T23:40:36.214Z,17.10
2018-05-06T23:43:03.794Z,17.20
2018-05-06T23:45:32.301Z,17.20
2018-05-06T23:47:59.928Z,17.20
2018-05-06T23:50:28.339Z,17.10
2018-05-06T23:52:55.977Z,17.10
2018-05-06T23:55:23.561Z,17.20
2018-05-06T23:57:51.078Z,17.10
